Time;durP1;ratioP1;P1;durP2;ratioP2;P2;SDS_P1;SDS_P2;PMS_P1;PMS_P2;Temp;Humidity;BMP_temperature;BMP_pressure;BME280_temperature;BME280_humidity;BME280_pressure;Samples;Min_cycle;Max_cycle;Signal;HPM_P1;HPM_P2
2021/08/18 00:01:19;;;;;;;10.47;9.47;;;;;;;26.90;51.37;94149.70;829129;71;29528;-75
2021/08/18 00:02:23;;;;;;;11.10;10.00;;;;;;;;;;808713;73;26786;-75
2021/08/18 00:16:29;;;;;;;10.77;9.67;;;;;;;;;;820993;71;32779;-75
2021/08/18 00:31:31;;;;;;;9.03;7.73;;;;;;;;;;830265;71;30282;-74
2021/08/18 00:46:12;;;;;;;9.70;8.80;;;;;;;26.73;51.07;94095.64;828888;71;29787;-73
2021/08/18 01:01:16;;;;;;;8.77;7.97;;;;;;;26.74;50.93;94073.51;827863;71;32799;-73
2021/08/18 01:16:23;;;;;;;9.57;8.67;;;;;;;26.66;50.84;94090.31;828561;71;29766;-74
2021/08/18 01:31:27;;;;;;;10.30;8.53;;;;;;;26.57;50.74;94104.81;832455;71;32691;-74
2021/08/18 01:46:19;;;;;;;8.10;7.40;;;;;;;26.61;50.33;94125.77;812667;71;30227;-72
2021/08/18 02:01:18;;;;;;;10.93;7.40;;;;;;;26.53;49.46;94113.51;828417;71;29634;-75
2021/08/18 02:16:18;;;;;;;8.47;7.67;;;;;;;26.39;49.80;94127.27;829228;71;32003;-75
2021/08/18 02:31:19;;;;;;;7.83;7.03;;;;;;;26.47;49.74;94145.47;834057;71;32701;-71
2021/08/18 02:46:16;;;;;;;7.00;6.50;;;;;;;26.35;49.35;94158.82;834325;71;32782;-73
2021/08/18 03:16:39;;;;;;;6.73;6.20;;;;;;;26.28;48.59;94164.28;834002;71;33103;-74
2021/08/18 03:31:21;;;;;;;7.50;6.90;;;;;;;26.17;47.75;94175.69;827558;71;32779;-74
2021/08/18 03:46:19;;;;;;;8.47;6.23;;;;;;;26.06;47.67;94182.49;827594;71;32643;-74
2021/08/18 04:01:12;;;;;;;7.27;6.10;;;;;;;26.11;47.34;94183.99;828166;71;30750;-73
2021/08/18 04:16:10;;;;;;;6.70;6.10;;;;;;;26.41;45.97;94205.50;828255;71;30288;-74
2021/08/18 04:31:22;;;;;;;6.70;5.87;;;;;;;27.23;43.69;94216.92;834228;71;29751;-74
2021/08/18 04:46:27;;;;;;;6.77;6.17;;;;;;;27.68;43.15;94232.95;828218;71;32757;-75
2021/08/18 05:01:22;;;;;;;6.47;5.17;;;;;;;;;;827312;71;32770;-75
2021/08/18 05:16:17;;;;;;;6.17;5.00;;;;;;;27.41;43.22;94249.04;828155;71;30862;-76
2021/08/18 05:31:14;;;;;;;4.67;4.30;;;;;;;27.00;41.60;94247.71;830055;71;30071;-76
2021/08/18 05:32:18;;;;;;;5.40;4.90;;;;;;;27.00;41.60;94247.71;810385;72;26632;-82
2021/08/18 05:46:33;;;;;;;4.63;4.20;;;;;;;27.03;41.48;94247.69;829470;71;33230;-85
2021/08/18 06:01:25;;;;;;;4.33;3.93;;;;;;;27.20;41.28;94240.58;828763;71;29605;-83
2021/08/18 06:31:21;;;;;;;3.90;3.53;;;;;;;27.86;39.83;94238.13;834238;71;29687;-83
2021/08/18 06:46:23;;;;;;;5.23;4.20;;;;;;;28.34;38.71;166148.12;834414;71;32374;-81
2021/08/18 07:01:23;;;;;;;5.10;4.63;;;;;;;28.59;37.55;94236.55;827759;71;32697;-83
2021/08/18 07:16:21;;;;;;;5.60;4.50;;;;;;;28.93;37.17;94231.75;827792;71;32703;-84
2021/08/18 07:31:19;;;;;;;10.53;4.60;;;;;;;29.30;36.82;94229.17;829341;71;32661;-80
2021/08/18 07:46:16;;;;;;;5.23;4.83;;;;;;;29.70;36.09;94229.18;824021;71;32766;-83
2021/08/18 08:01:22;;;;;;;6.47;5.87;;;;;;;30.06;35.56;94220.34;828415;71;29311;-80
2021/08/18 08:16:26;;;;;;;8.43;7.60;;;;;;;30.41;35.23;94216.69;827849;71;32718;-81
2021/08/18 08:31:24;;;;;;;9.07;8.27;;;;;;;30.65;34.95;94215.32;827575;71;33160;-78
2021/08/18 08:46:26;;;;;;;11.00;8.70;;;;;;;30.69;35.14;94201.09;820046;71;32792;-79
2021/08/18 09:16:18;;;;;;;9.77;8.87;;;;;;;31.06;34.43;94169.80;821557;71;32774;-82
2021/08/18 09:31:27;;;;;;;11.77;9.43;;;;;;;31.13;34.53;94158.78;821459;71;32861;-79
2021/08/18 09:46:13;;;;;;;9.53;8.63;;;;;;;31.75;34.10;94146.38;822355;71;29860;-80
2021/08/18 10:01:11;;;;;;;11.00;10.00;;;;;;;32.11;33.47;94138.55;828595;71;29726;-79
2021/08/18 10:16:15;;;;;;;10.30;9.40;;;;;;;32.51;32.86;94127.18;827497;71;32872;-79
2021/08/18 10:31:22;;;;;;;11.77;10.70;;;;;;;32.59;32.52;94106.75;833867;71;33196;-82
2021/08/18 10:46:10;;;;;;;10.03;9.13;;;;;;;32.97;32.15;94107.78;829448;71;29986;-82
2021/08/18 11:01:34;;;;;;;10.83;9.93;;;;;;;33.31;31.69;94098.23;821867;71;32382;-78
2021/08/18 11:16:28;;;;;;;11.17;10.27;;;;;;;33.12;31.60;94081.03;823083;71;32642;-79
2021/08/18 11:31:16;;;;;;;11.37;10.27;;;;;;;33.05;31.58;94067.67;820845;71;33350;-81
2021/08/18 11:46:09;;;;;;;12.03;10.90;;;;;;;32.95;31.76;94057.95;828488;71;29637;-83
2021/08/18 12:01:11;;;;;;;12.20;11.00;;;;;;;32.85;31.78;94033.27;829970;71;29725;-79
2021/08/18 12:16:30;;;;;;;13.53;12.27;;;;;;;32.43;32.08;94007.12;822842;71;30020;-77
2021/08/18 12:31:10;;;;;;;13.13;11.93;;;;;;;32.32;32.37;93999.35;823542;71;30457;-78
2021/08/18 12:46:24;;;;;;;14.40;12.37;;;;;;;32.14;32.43;93993.78;820971;71;33339;-80
2021/08/18 13:01:21;;;;;;;14.00;12.67;;;;;;;32.16;32.55;93983.23;822863;71;32739;-82
2021/08/18 13:16:16;;;;;;;14.50;13.17;;;;;;;32.09;32.28;93965.81;826859;70;31972;-80
2021/08/18 13:31:17;;;;;;;14.23;12.77;;;;;;;32.02;32.16;93956.57;827133;71;32555;-79
2021/08/18 13:46:14;;;;;;;13.37;12.10;;;;;;;31.91;32.30;93941.95;822310;71;33379;-80
2021/08/18 14:01:44;;;;;;;14.67;13.27;;;;;;;31.44;32.70;93935.91;790863;74;32880;-83
2021/08/18 14:16:26;;;;;;;17.37;15.70;;;;;;;31.36;32.63;93935.38;793559;74;31868;-81
2021/08/18 14:31:24;;;;;;;13.93;12.57;;;;;;;31.07;33.57;93939.58;834483;71;31766;-81
2021/08/18 15:16:08;;;;;;;10.50;8.60;;;;;;;29.53;38.35;94000.63;828219;71;27532;-74
2021/08/18 15:31:31;;;;;;;7.23;6.03;;;;;;;28.89;37.32;94024.97;820715;71;30927;-76
2021/08/18 15:47:13;;;;;;;6.13;5.60;;;;;;;28.00;37.11;94044.89;815993;70;31122;-75
2021/08/18 16:02:18;;;;;;;6.50;5.90;;;;;;;27.27;37.84;94068.10;784871;75;32489;-77
2021/08/18 16:16:16;;;;;;;6.60;6.00;;;;;;;26.61;38.13;94104.23;828288;71;28553;-74
2021/08/18 16:31:34;;;;;;;6.13;5.17;;;;;;;;;;833974;71;32259;-79
2021/08/18 16:46:19;;;;;;;5.30;4.30;;;;;;;25.12;40.84;94153.94;823582;71;30684;-76
2021/08/18 17:01:16;;;;;;;7.73;6.10;;;;;;;25.00;43.03;94146.31;827371;71;31721;-75
2021/08/18 17:16:24;;;;;;;7.47;6.77;;;;;;;24.83;42.87;94169.93;828087;71;29233;-75
2021/08/18 17:31:22;;;;;;;4.80;4.40;;;;;;;24.59;44.24;94182.98;816252;71;29326;-78
2021/08/18 17:46:19;;;;;;;8.50;5.17;;;;;;;24.73;49.63;94176.84;834458;71;28653;-74
2021/08/18 18:01:28;;;;;;;10.33;6.60;;;;;;;24.24;54.78;94212.66;819723;71;31832;-76
2021/08/18 18:16:19;;;;;;;8.20;6.43;;;;;;;22.86;57.75;94237.92;834012;71;33038;-74
2021/08/18 18:31:17;;;;;;;9.43;8.47;;;;;;;22.17;59.01;94238.50;833918;71;29704;-75
2021/08/18 18:46:10;;;;;;;7.40;6.70;;;;;;;21.77;59.46;94260.03;828241;71;29727;-74
2021/08/18 19:01:57;;;;;;;6.60;5.90;;;;;;;23.72;54.99;94270.55;808958;72;33344;-75
2021/08/18 19:16:22;;;;;;;5.77;5.20;;;;;;;24.68;50.64;94269.25;827973;71;30397;-74
2021/08/18 19:17:26;;;;;;;7.30;5.53;;;;;;;24.73;50.71;94280.92;808447;72;26465;-75
2021/08/18 19:31:19;;;;;;;6.67;5.07;;;;;;;25.08;48.64;94279.39;826686;71;30113;-75
2021/08/18 19:46:37;;;;;;;5.53;4.90;;;;;;;25.34;47.75;94289.52;828386;71;32293;-75
2021/08/18 20:01:23;;;;;;;5.20;4.80;;;;;;;25.46;46.25;94283.73;833851;71;33172;-74
2021/08/18 20:16:14;;;;;;;5.63;4.80;;;;;;;25.24;46.53;94306.42;828049;71;30774;-77
2021/08/18 20:31:10;;;;;;;4.97;4.57;;;;;;;23.17;49.78;94326.28;833928;71;30265;-77
2021/08/18 20:46:15;;;;;;;4.30;4.00;;;;;;;22.14;50.80;94337.56;827183;71;33867;-75
2021/08/18 21:16:10;;;;;;;4.03;3.62;;;;;;;21.09;51.93;94349.31;828225;71;29649;-74
2021/08/18 21:31:15;;;;;;;4.30;3.70;;;;;;;20.76;52.47;94360.05;827664;71;33220;-76
2021/08/18 21:46:14;;;;;;;4.42;4.10;;;;;;;20.49;52.99;94355.72;827481;71;32700;-75
2021/08/18 22:01:14;;;;;;;4.20;3.80;;;;;;;20.23;53.29;94347.83;833793;71;33106;-76
2021/08/18 22:16:14;;;;;;;4.75;4.20;;;;;;;20.10;53.66;94364.53;833817;71;32607;-76
2021/08/18 22:31:08;;;;;;;4.00;3.70;;;;;;;20.05;53.77;94360.04;828080;71;30191;-75
2021/08/18 22:46:13;;;;;;;4.40;4.00;;;;;;;19.99;53.29;94359.00;833858;71;30829;-77
2021/08/18 23:01:14;;;;;;;4.30;3.90;;;;;;;19.95;53.04;94360.03;827518;71;32744;-77
2021/08/18 23:16:16;;;;;;;4.33;3.62;;;;;;;19.89;53.20;94372.09;828086;71;32615;-77
2021/08/18 23:31:14;;;;;;;4.78;4.10;;;;;;;19.83;52.94;94364.95;827670;71;33450;-75
2021/08/18 23:46:14;;;;;;;4.35;3.60;;;;;;;19.77;52.67;94382.33;834593;71;32673;-76
